createdAt,value
2023-04-07T00:25:26.475Z,1.92
2023-04-07T00:45:32.321Z,1.83
2023-04-07T03:08:19.178Z,1.77
2023-04-07T03:48:46.076Z,1.89
2023-04-07T04:09:51.414Z,1.79
2023-04-07T05:09:59.290Z,2.01
2023-04-07T05:30:02.219Z,1.97
2023-04-07T05:50:23.673Z,1.97
2023-04-07T06:10:26.293Z,2.46
2023-04-07T06:30:29.394Z,2.21
2023-04-07T07:10:56.203Z,2.93
2023-04-07T07:31:01.325Z,2.61
2023-04-07T07:51:09.416Z,3.23
2023-04-07T08:52:14.193Z,3.60
2023-04-07T09:32:52.225Z,3.53
2023-04-07T09:52:59.083Z,3.39
2023-04-07T10:13:11.590Z,3.29
2023-04-07T10:33:17.181Z,3.81
2023-04-07T11:54:32.295Z,4.53
2023-04-07T13:15:23.224Z,5.43
2023-04-07T13:35:26.335Z,5.19
2023-04-07T13:55:29.049Z,5.13
2023-04-07T14:15:31.698Z,5.06
2023-04-07T14:35:35.031Z,5.44
2023-04-07T14:55:38.422Z,5.78
2023-04-07T15:15:41.096Z,6.06
2023-04-07T15:35:43.954Z,5.61
2023-04-07T15:55:46.934Z,5.70
2023-04-07T16:15:49.669Z,5.23
2023-04-07T16:35:53.273Z,5.17
2023-04-07T16:55:56.094Z,5.63
2023-04-07T17:15:58.797Z,5.70
2023-04-07T17:36:01.673Z,5.73
2023-04-07T17:56:04.566Z,6.08
2023-04-07T18:16:10.749Z,6.36
2023-04-07T18:36:14.274Z,6.63
2023-04-07T18:56:17.142Z,6.08
2023-04-07T19:16:20.138Z,6.15
2023-04-07T19:36:22.970Z,6.10
2023-04-07T19:56:26.369Z,6.52
2023-04-07T20:16:29.121Z,6.43
2023-04-07T20:36:32.717Z,6.34
2023-04-07T20:56:36.006Z,6.00
2023-04-07T21:16:38.643Z,5.91
2023-04-07T21:36:42.698Z,5.90
2023-04-07T21:56:50.544Z,5.46
